Terminal Aerodrome Forecast
Issued by NWS

Home | Current Version | Previous Version | Text Only | Print | Product List | Glossary On
Versions: 1 2 3 4 5 6 7 8 9 10 11 12 13 14 15 16 17 18 19 20 21 22 23 24 25 26 27 28 29 30 31 32 33 34 35 36 37 38 39 40 41 42 43 44 45
000
FTUS45 KSLC 060123 AAB
TAFSGU
TAF AMD
KSGU 060123Z 0601/0624 29010KT P6SM SCT070 BKN100
     FM060145 36010KT P6SM -SHRA VCTS SCT040CB BKN070
      TEMPO 0602/0604 VRB15G25KT 6SM -TSRA BKN040CB
     FM060600 VRB05KT P6SM SCT060 BKN080
     FM061900 23012G19KT P6SM SCT080 BKN150
      AMD LTD TO CLD VIS AND WIND=

USA.gov is the U.S. government's official web portal to all federal, state and local government web resources and services.